createdAt,value
2023-03-26T00:01:51.079Z,6.97
2023-03-26T00:04:21.776Z,6.98
2023-03-26T00:06:50.314Z,6.89
2023-03-26T00:09:18.464Z,6.75
2023-03-26T00:11:46.715Z,6.65
2023-03-26T00:14:17.509Z,6.57
2023-03-26T00:16:47.490Z,6.55
2023-03-26T00:19:15.501Z,6.36
2023-03-26T00:21:43.017Z,6.62
2023-03-26T00:24:15.244Z,6.69
2023-03-26T00:26:43.592Z,6.79
2023-03-26T00:29:13.435Z,6.74
2023-03-26T00:31:41.123Z,6.72
2023-03-26T00:34:10.454Z,6.56
2023-03-26T00:36:37.864Z,6.35
2023-03-26T00:39:05.754Z,6.31
2023-03-26T00:41:36.869Z,6.36
2023-03-26T00:44:04.549Z,6.18
2023-03-26T00:46:32.819Z,6.23
2023-03-26T00:49:01.702Z,6.10
2023-03-26T00:51:29.688Z,6.09
2023-03-26T00:53:57.945Z,5.85
2023-03-26T00:56:26.011Z,5.72
2023-03-26T00:58:53.348Z,5.67
2023-03-26T01:01:27.858Z,5.89
2023-03-26T01:04:08.773Z,6.10
2023-03-26T01:06:45.175Z,6.09
2023-03-26T01:09:16.536Z,5.98
2023-03-26T01:11:44.516Z,5.81
2023-03-26T01:14:17.869Z,5.68
2023-03-26T01:16:56.995Z,5.62
2023-03-26T01:19:38.232Z,5.78
2023-03-26T01:22:11.878Z,5.85
2023-03-26T01:24:40.899Z,5.55
2023-03-26T01:27:09.608Z,5.39
2023-03-26T01:29:43.993Z,5.34
2023-03-26T01:32:21.119Z,5.37
2023-03-26T01:35:14.688Z,5.39
2023-03-26T01:38:00.285Z,5.24
2023-03-26T01:40:43.027Z,5.28
2023-03-26T01:43:22.273Z,5.46
2023-03-26T01:45:50.647Z,5.57
2023-03-26T01:48:18.651Z,5.79
2023-03-26T01:50:46.083Z,5.64
2023-03-26T01:53:14.422Z,5.55
2023-03-26T01:55:49.690Z,5.70
2023-03-26T01:58:30.811Z,5.56
2023-03-26T02:01:12.663Z,5.52
2023-03-26T02:03:49.441Z,5.41
2023-03-26T02:06:39.690Z,5.39
2023-03-26T02:09:09.523Z,5.29
2023-03-26T02:11:38.342Z,5.29
2023-03-26T02:14:06.876Z,5.41
2023-03-26T02:16:34.382Z,5.28
2023-03-26T02:19:01.880Z,5.18
2023-03-26T02:21:29.541Z,5.43
2023-03-26T02:24:02.544Z,5.47
2023-03-26T02:26:34.234Z,5.42
2023-03-26T02:29:08.645Z,5.43
2023-03-26T02:31:37.841Z,5.50
2023-03-26T02:34:05.451Z,5.53
2023-03-26T02:36:35.906Z,5.03
2023-03-26T02:39:04.922Z,5.22
2023-03-26T02:41:35.975Z,4.98
2023-03-26T02:44:08.166Z,4.66
2023-03-26T02:46:54.382Z,4.76
2023-03-26T02:49:40.644Z,4.79
2023-03-26T02:52:08.315Z,4.85
2023-03-26T02:54:37.077Z,5.03
2023-03-26T02:57:07.561Z,4.82
2023-03-26T02:59:54.896Z,4.96
2023-03-26T03:02:40.299Z,4.70
2023-03-26T03:05:26.736Z,4.48
2023-03-26T03:08:14.424Z,4.57
2023-03-26T03:11:02.746Z,4.89
2023-03-26T03:13:40.198Z,4.84
2023-03-26T03:16:08.869Z,5.00
2023-03-26T03:18:36.643Z,4.88
2023-03-26T03:21:06.100Z,4.90
2023-03-26T03:23:33.745Z,4.84
2023-03-26T03:26:18.118Z,5.06
2023-03-26T03:28:51.408Z,4.93
2023-03-26T03:31:19.093Z,4.63
2023-03-26T03:33:46.697Z,4.55
2023-03-26T03:36:21.972Z,4.66
2023-03-26T03:39:02.279Z,4.71
2023-03-26T03:41:30.667Z,4.42
2023-03-26T03:44:01.493Z,4.71
2023-03-26T03:46:31.182Z,4.71
2023-03-26T03:48:58.869Z,5.13
2023-03-26T03:51:31.490Z,5.17
2023-03-26T03:54:01.225Z,5.26
2023-03-26T03:57:02.250Z,4.86
2023-03-26T03:59:54.244Z,4.92
2023-03-26T04:02:26.748Z,4.99
2023-03-26T04:04:59.075Z,5.18
2023-03-26T04:07:28.490Z,5.19
2023-03-26T04:10:06.676Z,4.99
2023-03-26T04:12:56.870Z,4.72
2023-03-26T04:15:41.123Z,4.54
2023-03-26T04:18:10.637Z,4.57
2023-03-26T04:20:46.632Z,4.40
2023-03-26T04:23:21.223Z,4.55
2023-03-26T04:25:54.064Z,4.48
2023-03-26T04:28:53.404Z,5.11
2023-03-26T04:31:29.140Z,5.20
2023-03-26T04:34:01.543Z,5.17
2023-03-26T04:36:32.144Z,5.02
2023-03-26T04:39:02.624Z,4.92
2023-03-26T04:41:49.991Z,4.63
2023-03-26T04:44:22.371Z,4.58
2023-03-26T04:47:00.990Z,4.98
2023-03-26T04:49:35.614Z,4.88
2023-03-26T04:52:03.226Z,4.81
2023-03-26T04:54:59.670Z,4.76
2023-03-26T04:57:37.070Z,4.62
2023-03-26T05:00:19.308Z,4.82
2023-03-26T05:02:56.225Z,4.93
2023-03-26T05:05:24.939Z,5.06
2023-03-26T05:07:52.572Z,5.14
2023-03-26T05:10:22.060Z,5.16
2023-03-26T05:12:57.669Z,5.33
2023-03-26T05:15:31.910Z,5.39
2023-03-26T05:17:59.337Z,5.40
2023-03-26T05:20:35.941Z,5.33
2023-03-26T05:23:07.355Z,5.56
2023-03-26T05:25:37.743Z,5.63
2023-03-26T05:28:12.163Z,5.54
2023-03-26T05:30:48.377Z,5.81
2023-03-26T05:33:16.389Z,5.85
2023-03-26T05:36:03.675Z,5.89
2023-03-26T05:38:32.940Z,5.93
2023-03-26T05:41:03.739Z,5.94
2023-03-26T05:43:32.102Z,5.86
2023-03-26T05:46:15.390Z,6.02
2023-03-26T05:48:43.529Z,6.07
2023-03-26T05:51:12.372Z,6.11
2023-03-26T05:53:43.405Z,5.97
2023-03-26T05:56:29.168Z,5.77
2023-03-26T05:59:16.214Z,5.93
2023-03-26T06:02:23.027Z,6.03
2023-03-26T06:05:16.736Z,6.16
2023-03-26T06:08:08.399Z,6.06
2023-03-26T06:10:39.175Z,6.32
2023-03-26T06:13:06.834Z,6.40
2023-03-26T06:15:37.645Z,6.46
2023-03-26T06:18:26.082Z,6.63
2023-03-26T06:21:16.795Z,6.69
2023-03-26T06:23:50.095Z,6.81
2023-03-26T06:26:35.793Z,6.69
2023-03-26T06:29:22.465Z,6.66
2023-03-26T06:31:57.079Z,6.66
2023-03-26T06:34:42.531Z,6.58
2023-03-26T06:37:09.919Z,6.58
2023-03-26T06:39:37.619Z,6.95
2023-03-26T06:42:15.728Z,6.75
2023-03-26T06:45:01.269Z,6.76
2023-03-26T06:47:34.849Z,6.75
2023-03-26T06:50:20.899Z,6.73
2023-03-26T06:53:14.390Z,6.67
2023-03-26T06:55:55.316Z,6.66
2023-03-26T06:58:34.300Z,6.66
2023-03-26T07:01:20.299Z,6.74
2023-03-26T07:04:06.342Z,6.71
2023-03-26T07:06:59.840Z,6.70
2023-03-26T07:09:45.617Z,6.72
2023-03-26T07:12:39.089Z,6.74
2023-03-26T07:15:21.621Z,6.78
2023-03-26T07:18:09.415Z,6.79
2023-03-26T07:20:39.098Z,6.78
2023-03-26T07:23:07.385Z,6.82
2023-03-26T07:26:28.824Z,6.82
2023-03-26T07:29:18.589Z,6.83
2023-03-26T07:32:40.555Z,7.10
2023-03-26T07:35:40.987Z,7.05
2023-03-26T07:38:47.757Z,6.95
2023-03-26T07:42:14.350Z,7.02
2023-03-26T07:45:24.739Z,7.13
2023-03-26T07:48:19.180Z,7.22
2023-03-26T07:51:05.800Z,7.32
2023-03-26T07:53:49.588Z,7.28
2023-03-26T07:56:45.204Z,7.26
2023-03-26T08:00:00.569Z,7.20
2023-03-26T08:03:07.554Z,7.03
2023-03-26T08:06:14.596Z,6.90
2023-03-26T08:09:46.624Z,6.62
2023-03-26T08:12:54.402Z,6.51
2023-03-26T08:15:29.195Z,6.42
2023-03-26T08:18:06.424Z,6.40
2023-03-26T08:20:41.597Z,6.33
2023-03-26T08:23:21.880Z,6.36
2023-03-26T08:26:05.092Z,6.34
2023-03-26T08:28:37.920Z,6.35
2023-03-26T08:31:05.876Z,6.33
2023-03-26T08:33:36.004Z,6.33
2023-03-26T08:36:04.758Z,6.37
2023-03-26T08:38:32.163Z,6.36
2023-03-26T08:41:05.252Z,6.39
2023-03-26T08:44:02.789Z,6.38
2023-03-26T08:47:04.423Z,6.37
2023-03-26T08:49:50.311Z,6.39
2023-03-26T08:52:50.393Z,6.39
2023-03-26T08:55:50.593Z,6.38
2023-03-26T08:58:42.509Z,6.42
2023-03-26T09:01:34.862Z,6.40
2023-03-26T09:04:23.911Z,6.42
2023-03-26T09:07:06.988Z,6.45
2023-03-26T09:09:53.235Z,6.47
2023-03-26T09:12:39.188Z,6.48
2023-03-26T09:15:10.082Z,6.48
2023-03-26T09:17:46.522Z,6.59
2023-03-26T09:20:34.067Z,6.54
2023-03-26T09:23:19.556Z,6.60
2023-03-26T09:26:04.480Z,6.60
2023-03-26T09:28:59.113Z,6.67
2023-03-26T09:32:03.329Z,6.81
2023-03-26T09:34:57.080Z,6.88
2023-03-26T09:37:26.893Z,6.97
2023-03-26T09:40:18.754Z,6.92
2023-03-26T09:42:46.223Z,6.98
2023-03-26T09:45:50.871Z,7.02
2023-03-26T09:48:27.107Z,7.30
2023-03-26T09:51:03.939Z,7.49
2023-03-26T09:53:57.958Z,7.98
2023-03-26T09:56:39.737Z,8.45
2023-03-26T09:59:26.136Z,9.00
2023-03-26T10:02:16.491Z,9.85
2023-03-26T10:05:10.165Z,9.54
2023-03-26T10:07:57.082Z,9.53
2023-03-26T10:10:34.177Z,9.45
2023-03-26T10:13:14.789Z,9.31
2023-03-26T10:16:01.200Z,9.34
2023-03-26T10:18:49.938Z,9.58
2023-03-26T10:21:53.246Z,9.79
2023-03-26T10:24:21.069Z,9.73
2023-03-26T10:27:09.940Z,9.77
2023-03-26T10:29:59.423Z,9.90
2023-03-26T10:32:37.914Z,10.41
2023-03-26T10:35:22.359Z,12.31
2023-03-26T10:38:16.301Z,13.91
2023-03-26T10:41:00.584Z,14.20
2023-03-26T10:43:57.711Z,15.59
2023-03-26T10:47:00.212Z,14.73
2023-03-26T10:49:36.148Z,14.97
2023-03-26T10:52:06.853Z,15.86
2023-03-26T10:55:06.657Z,15.80
2023-03-26T10:57:49.969Z,17.23
2023-03-26T11:00:25.573Z,18.04
2023-03-26T11:03:05.019Z,18.45
2023-03-26T11:05:52.821Z,16.69
2023-03-26T11:08:37.856Z,17.52
2023-03-26T11:11:11.136Z,18.25
2023-03-26T11:13:58.724Z,17.22
2023-03-26T11:16:44.182Z,16.53
2023-03-26T11:19:20.941Z,15.38
2023-03-26T11:22:07.974Z,14.74
2023-03-26T11:24:44.208Z,13.95
2023-03-26T11:27:15.314Z,14.22
2023-03-26T11:30:09.326Z,14.06
2023-03-26T11:32:42.986Z,14.26
2023-03-26T11:35:40.640Z,14.35
2023-03-26T11:38:22.015Z,14.77
2023-03-26T11:40:53.272Z,14.90
2023-03-26T11:43:36.727Z,14.97
2023-03-26T11:46:07.432Z,14.53
2023-03-26T11:48:34.837Z,15.67
2023-03-26T11:51:07.693Z,16.86
2023-03-26T11:53:39.348Z,17.09
2023-03-26T11:56:18.935Z,17.28
2023-03-26T11:59:05.877Z,17.49
2023-03-26T12:02:18.895Z,16.02
2023-03-26T12:04:55.140Z,15.55
2023-03-26T12:07:33.864Z,14.73
2023-03-26T12:10:17.873Z,13.71
2023-03-26T12:12:47.947Z,12.75
2023-03-26T12:15:20.357Z,11.55
2023-03-26T12:17:55.874Z,10.78
2023-03-26T12:20:26.313Z,10.63
2023-03-26T12:22:59.333Z,11.28
2023-03-26T12:25:40.180Z,11.89
2023-03-26T12:28:13.793Z,11.85
2023-03-26T12:30:45.016Z,11.60
2023-03-26T12:33:29.649Z,11.04
2023-03-26T12:35:58.410Z,10.80
2023-03-26T12:38:40.618Z,10.65
2023-03-26T12:41:08.612Z,10.49
2023-03-26T12:44:49.858Z,11.51
2023-03-26T12:47:54.509Z,13.15
2023-03-26T12:49:35.470Z,14.93
2023-03-26T12:52:49.039Z,15.85
2023-03-26T12:56:00.612Z,16.58
2023-03-26T12:58:41.087Z,15.69
2023-03-26T13:01:46.449Z,15.59
2023-03-26T13:04:37.877Z,16.18
2023-03-26T13:07:22.104Z,17.33
2023-03-26T13:09:55.975Z,18.13
2023-03-26T13:13:07.533Z,18.89
2023-03-26T13:15:44.308Z,19.12
2023-03-26T13:18:43.595Z,18.46
2023-03-26T13:21:21.962Z,18.10
2023-03-26T13:24:04.574Z,18.66
2023-03-26T13:26:59.736Z,19.04
2023-03-26T13:29:57.124Z,18.70
2023-03-26T13:32:37.824Z,18.15
2023-03-26T13:35:46.448Z,18.41
2023-03-26T13:38:38.415Z,18.14
2023-03-26T13:41:30.881Z,16.87
2023-03-26T13:44:24.381Z,16.42
2023-03-26T13:47:00.659Z,15.66
2023-03-26T13:50:03.978Z,14.97
2023-03-26T13:52:39.958Z,14.58
2023-03-26T13:55:29.533Z,14.32
2023-03-26T13:58:08.682Z,14.49
2023-03-26T14:01:04.248Z,14.60
2023-03-26T14:04:05.734Z,14.73
2023-03-26T14:06:48.870Z,14.46
2023-03-26T14:09:32.090Z,14.24
2023-03-26T14:12:21.577Z,14.16
2023-03-26T14:15:05.833Z,14.02
2023-03-26T14:17:39.102Z,13.98
2023-03-26T14:20:19.905Z,13.98
2023-03-26T14:22:51.443Z,13.98
2023-03-26T14:25:48.006Z,13.78
2023-03-26T14:28:34.186Z,13.58
2023-03-26T14:31:20.562Z,13.53
2023-03-26T14:33:53.730Z,13.44
2023-03-26T14:36:38.965Z,13.41
2023-03-26T14:39:32.132Z,13.33
2023-03-26T14:42:08.089Z,13.16
2023-03-26T14:44:56.362Z,13.07
2023-03-26T14:47:27.158Z,12.93
2023-03-26T14:50:04.007Z,12.68
2023-03-26T14:52:34.375Z,12.45
2023-03-26T14:55:04.393Z,12.29
2023-03-26T14:57:57.590Z,12.16
2023-03-26T15:00:45.994Z,12.05
2023-03-26T15:03:13.514Z,12.08
2023-03-26T15:06:26.710Z,11.99
2023-03-26T15:09:32.740Z,11.52
2023-03-26T15:12:25.648Z,10.78
2023-03-26T15:15:40.382Z,9.95
2023-03-26T15:18:26.588Z,9.48
2023-03-26T15:21:31.701Z,9.28
2023-03-26T15:24:13.756Z,9.26
2023-03-26T15:27:18.649Z,9.39
2023-03-26T15:30:23.340Z,9.42
2023-03-26T15:33:18.086Z,9.20
2023-03-26T15:36:03.613Z,8.89
2023-03-26T15:38:56.050Z,8.66
2023-03-26T15:41:28.499Z,8.57
2023-03-26T15:44:24.556Z,8.55
2023-03-26T15:46:57.621Z,8.52
2023-03-26T15:49:36.054Z,8.53
2023-03-26T15:52:23.957Z,8.55
2023-03-26T15:55:26.388Z,8.45
2023-03-26T15:58:02.614Z,8.29
2023-03-26T16:00:34.271Z,8.18
2023-03-26T16:03:12.769Z,8.01
2023-03-26T16:06:11.325Z,7.86
2023-03-26T16:08:47.662Z,7.81
2023-03-26T16:11:15.497Z,7.63
2023-03-26T16:14:31.969Z,7.60
2023-03-26T16:17:00.024Z,7.62
2023-03-26T16:19:36.217Z,7.66
2023-03-26T16:22:07.536Z,7.65
2023-03-26T16:24:37.208Z,7.66
2023-03-26T16:27:25.665Z,7.72
2023-03-26T16:30:11.875Z,7.69
2023-03-26T16:32:46.632Z,7.58
2023-03-26T16:35:13.936Z,7.52
2023-03-26T16:38:06.029Z,7.62
2023-03-26T16:40:42.570Z,7.60
2023-03-26T16:43:40.914Z,7.63
2023-03-26T16:46:30.495Z,7.55
2023-03-26T16:49:05.655Z,7.60
2023-03-26T16:52:14.996Z,7.56
2023-03-26T16:54:52.615Z,7.67
2023-03-26T16:57:28.069Z,7.64
2023-03-26T17:00:07.369Z,7.58
2023-03-26T17:02:50.334Z,7.51
2023-03-26T17:05:21.140Z,7.37
2023-03-26T17:07:53.436Z,7.48
2023-03-26T17:10:40.234Z,7.39
2023-03-26T17:13:36.617Z,7.22
2023-03-26T17:16:25.598Z,7.22
2023-03-26T17:19:25.295Z,7.14
2023-03-26T17:22:22.098Z,7.13
2023-03-26T17:25:06.219Z,7.07
2023-03-26T17:28:20.069Z,7.01
2023-03-26T17:31:17.863Z,6.89
2023-03-26T17:33:45.564Z,6.88
2023-03-26T17:36:12.884Z,6.81
2023-03-26T17:38:40.115Z,6.81
2023-03-26T17:41:16.402Z,6.77
2023-03-26T17:43:52.148Z,6.74
2023-03-26T17:46:38.692Z,6.76
2023-03-26T17:49:26.608Z,6.75
2023-03-26T17:52:16.916Z,6.71
2023-03-26T17:54:49.662Z,6.65
2023-03-26T17:57:33.778Z,6.58
2023-03-26T18:00:01.682Z,6.62
2023-03-26T18:02:42.314Z,6.51
2023-03-26T18:05:12.611Z,6.55
2023-03-26T18:07:44.018Z,6.48
2023-03-26T18:10:17.935Z,6.36
2023-03-26T18:13:15.991Z,6.29
2023-03-26T18:16:21.199Z,6.25
2023-03-26T18:18:59.015Z,6.29
2023-03-26T18:21:36.034Z,6.19
2023-03-26T18:24:05.442Z,6.15
2023-03-26T18:26:36.715Z,6.11
2023-03-26T18:29:27.666Z,6.17
2023-03-26T18:32:22.113Z,6.18
2023-03-26T18:34:58.757Z,6.17
2023-03-26T18:37:34.190Z,6.18
2023-03-26T18:40:24.839Z,6.16
2023-03-26T18:42:55.124Z,6.19
2023-03-26T18:45:34.008Z,6.18
2023-03-26T18:48:13.841Z,6.09
2023-03-26T18:50:42.499Z,6.08
2023-03-26T18:53:20.627Z,6.12
2023-03-26T18:55:50.556Z,6.05
2023-03-26T18:58:23.071Z,6.04
2023-03-26T19:00:52.916Z,6.00
2023-03-26T19:03:24.289Z,6.01
2023-03-26T19:05:53.698Z,6.05
2023-03-26T19:08:23.715Z,6.09
2023-03-26T19:10:52.619Z,6.07
2023-03-26T19:13:23.676Z,6.13
2023-03-26T19:15:52.808Z,6.15
2023-03-26T19:18:24.000Z,6.18
2023-03-26T19:21:02.961Z,6.22
2023-03-26T19:23:38.158Z,6.17
2023-03-26T19:26:09.236Z,6.15
2023-03-26T19:28:51.450Z,6.14
2023-03-26T19:31:25.891Z,6.22
2023-03-26T19:34:17.909Z,6.29
2023-03-26T19:36:58.307Z,6.31
2023-03-26T19:42:06.470Z,6.32
2023-03-26T19:44:39.468Z,6.26
2023-03-26T19:47:14.023Z,6.28
2023-03-26T19:49:52.912Z,6.35
2023-03-26T19:52:24.852Z,6.35
2023-03-26T19:55:02.116Z,6.34
2023-03-26T19:57:36.325Z,6.30
2023-03-26T20:00:13.180Z,6.18
2023-03-26T20:02:42.358Z,6.18
2023-03-26T20:05:22.935Z,6.15
2023-03-26T20:07:50.825Z,6.18
2023-03-26T20:10:18.503Z,6.15
2023-03-26T20:12:45.943Z,6.21
2023-03-26T20:15:23.443Z,6.06
2023-03-26T20:17:54.376Z,6.14
2023-03-26T20:20:24.683Z,6.15
2023-03-26T20:22:55.797Z,6.14
2023-03-26T20:25:34.727Z,6.18
2023-03-26T20:28:02.382Z,6.10
2023-03-26T20:33:12.416Z,6.12
2023-03-26T20:35:41.450Z,6.02
2023-03-26T20:38:09.683Z,6.07
2023-03-26T20:40:38.366Z,6.09
2023-03-26T20:43:14.393Z,6.02
2023-03-26T20:45:42.024Z,6.03
2023-03-26T20:48:12.558Z,6.02
2023-03-26T20:50:50.412Z,5.95
2023-03-26T20:53:18.919Z,5.92
2023-03-26T20:55:46.671Z,5.88
2023-03-26T20:58:17.759Z,5.95
2023-03-26T21:00:46.530Z,5.87
2023-03-26T21:03:15.868Z,5.83
2023-03-26T21:05:43.560Z,5.70
2023-03-26T21:08:17.188Z,5.82
2023-03-26T21:10:46.055Z,5.87
2023-03-26T21:13:25.251Z,5.74
2023-03-26T21:15:53.546Z,5.72
2023-03-26T21:18:21.855Z,5.67
2023-03-26T21:21:10.765Z,5.78
2023-03-26T21:23:59.140Z,5.76
2023-03-26T21:26:31.740Z,5.84
2023-03-26T21:28:59.274Z,5.79
2023-03-26T21:31:30.866Z,5.87
2023-03-26T21:33:58.978Z,5.83
2023-03-26T21:36:27.210Z,5.83
2023-03-26T21:38:54.804Z,5.78
2023-03-26T21:41:25.213Z,5.81
2023-03-26T21:43:52.570Z,5.74
2023-03-26T21:46:20.665Z,5.68
2023-03-26T21:48:48.207Z,5.63
2023-03-26T21:51:19.281Z,5.63
2023-03-26T21:53:47.048Z,5.67
2023-03-26T21:56:40.362Z,5.60
2023-03-26T21:59:20.496Z,5.58
2023-03-26T22:02:02.900Z,5.53
2023-03-26T22:04:46.792Z,5.53
2023-03-26T22:07:20.869Z,5.56
2023-03-26T22:09:48.535Z,5.54
2023-03-26T22:12:16.854Z,5.54
2023-03-26T22:14:44.210Z,5.56
2023-03-26T22:17:11.592Z,5.43
2023-03-26T22:19:38.919Z,5.47
2023-03-26T22:22:06.229Z,5.44
2023-03-26T22:24:34.413Z,5.42
2023-03-26T22:27:01.871Z,5.39
2023-03-26T22:29:29.247Z,5.34
2023-03-26T22:31:56.623Z,5.37
2023-03-26T22:34:24.522Z,5.36
2023-03-26T22:36:53.123Z,5.41
2023-03-26T22:39:20.497Z,5.33
2023-03-26T22:41:47.949Z,5.34
2023-03-26T22:44:20.260Z,5.35
2023-03-26T22:46:51.145Z,5.34
2023-03-26T22:49:18.913Z,5.35
2023-03-26T22:51:46.784Z,5.40
2023-03-26T22:54:14.626Z,5.34
2023-03-26T22:56:43.529Z,5.44
2023-03-26T22:59:11.208Z,5.38
2023-03-26T23:01:39.058Z,5.39
2023-03-26T23:04:07.100Z,5.37
2023-03-26T23:06:34.572Z,5.32
2023-03-26T23:09:01.943Z,5.29
2023-03-26T23:11:30.668Z,5.31
2023-03-26T23:13:58.118Z,5.27
2023-03-26T23:16:26.472Z,5.25
2023-03-26T23:18:53.944Z,5.24
2023-03-26T23:21:23.010Z,5.31
2023-03-26T23:23:52.276Z,5.37
2023-03-26T23:26:19.910Z,5.38
2023-03-26T23:28:47.830Z,5.36
2023-03-26T23:31:15.241Z,5.44
2023-03-26T23:33:50.338Z,5.52
2023-03-26T23:36:19.313Z,5.50
2023-03-26T23:38:48.389Z,5.60
2023-03-26T23:41:18.805Z,5.62
2023-03-26T23:43:54.720Z,5.67
2023-03-26T23:46:30.834Z,5.70
2023-03-26T23:49:04.910Z,5.76
2023-03-26T23:51:32.930Z,5.73
2023-03-26T23:54:01.500Z,5.80
2023-03-26T23:56:32.338Z,5.80
2023-03-26T23:59:00.771Z,5.79
